Time;durP1;ratioP1;P1;durP2;ratioP2;P2;SDS_P1;SDS_P2;PMS_P1;PMS_P2;Temp;Humidity;BMP_temperature;BMP_pressure;BME280_temperature;BME280_humidity;BME280_pressure;Samples;Min_cycle;Max_cycle;Signal;HPM_P1;HPM_P2
2023/09/02 01:58:13;;;;;;;6.67;6.17;;;18.50;41.30;;;;;;5190614;23;20504;-76
2023/09/02 02:00:39;;;;;;;6.20;5.90;;;18.50;41.30;;;;;;4983043;28;20429;-76
2023/09/02 02:03:11;;;;;;;6.73;6.20;;;18.50;41.00;;;;;;4991753;28;20685;-77
2023/09/02 02:05:45;;;;;;;7.07;6.67;;;18.60;41.00;;;;;;4991466;28;20623;-77
2023/09/02 02:08:25;;;;;;;6.40;6.10;;;18.60;40.80;;;;;;4991116;28;20409;-77
2023/09/02 02:10:53;;;;;;;7.00;6.30;;;18.60;40.80;;;;;;4977253;28;20420;-77
2023/09/02 02:13:19;;;;;;;6.80;6.40;;;18.50;40.70;;;;;;4976061;28;20813;-77
2023/09/02 02:15:44;;;;;;;6.67;6.17;;;18.50;40.80;;;;;;4977013;28;20421;-77
2023/09/02 02:18:10;;;;;;;7.00;6.30;;;18.50;40.80;;;;;;4989768;28;20190;-77
2023/09/02 02:20:49;;;;;;;6.20;5.90;;;18.50;40.90;;;;;;4973882;28;20195;-77
2023/09/02 02:23:15;;;;;;;6.30;6.00;;;18.50;41.00;;;;;;4973951;28;20563;-77
2023/09/02 02:25:40;;;;;;;6.80;6.40;;;18.50;41.10;;;;;;4956783;28;20470;-77
2023/09/02 02:28:06;;;;;;;6.57;6.27;;;18.50;40.70;;;;;;4973593;28;20600;-76
2023/09/02 02:30:32;;;;;;;6.40;6.10;;;18.50;40.90;;;;;;4974016;28;20262;-77
2023/09/02 02:32:59;;;;;;;6.63;6.20;;;18.50;40.90;;;;;;4952454;28;20250;-76
2023/09/02 02:35:31;;;;;;;6.50;6.10;;;18.50;40.80;;;;;;4938605;29;20664;-76
2023/09/02 02:37:58;;;;;;;6.50;6.10;;;18.50;40.90;;;;;;4954885;29;20429;-76
2023/09/02 02:40:23;;;;;;;6.40;5.90;;;18.50;40.90;;;;;;4955264;29;20418;-76
2023/09/02 02:42:49;;;;;;;6.20;5.90;;;18.50;40.80;;;;;;4937021;29;20449;-76
2023/09/02 02:45:14;;;;;;;7.40;6.90;;;18.40;41.00;;;;;;4955310;29;20214;-76
2023/09/02 02:47:40;;;;;;;7.40;6.90;;;18.40;41.10;;;;;;4955749;29;20175;-75
2023/09/02 02:50:06;;;;;;;7.13;6.73;;;18.40;41.50;;;;;;4937751;29;20211;-76
2023/09/02 02:52:31;;;;;;;6.83;6.53;;;18.40;41.70;;;;;;4954862;29;20278;-76
2023/09/02 02:54:57;;;;;;;7.20;6.67;;;18.40;41.50;;;;;;4953918;29;20171;-76
2023/09/02 02:57:23;;;;;;;7.20;6.63;;;18.50;41.50;;;;;;4938229;29;20195;-76
2023/09/02 02:59:51;;;;;;;6.67;6.27;;;18.40;41.20;;;;;;4937641;29;20201;-76
2023/09/02 03:02:16;;;;;;;7.07;6.57;;;18.40;41.20;;;;;;4953710;29;20517;-76
2023/09/02 03:04:46;;;;;;;6.70;6.30;;;18.40;40.80;;;;;;4953805;29;20482;-75
2023/09/02 03:07:12;;;;;;;7.13;6.73;;;18.40;40.90;;;;;;4954468;29;20250;-76
2023/09/02 03:09:37;;;;;;;7.27;6.77;;;18.40;41.10;;;;;;4955307;29;20514;-76
2023/09/02 03:12:03;;;;;;;7.10;6.70;;;18.30;41.10;;;;;;4955271;29;20194;-76
2023/09/02 03:14:29;;;;;;;7.00;6.37;;;18.30;41.10;;;;;;4955274;29;20175;-76
2023/09/02 03:16:54;;;;;;;6.73;6.27;;;18.30;41.10;;;;;;4955040;29;20669;-77
2023/09/02 03:19:20;;;;;;;6.90;6.60;;;18.30;41.20;;;;;;4954585;28;20541;-77
2023/09/02 03:21:45;;;;;;;6.53;6.23;;;18.30;41.20;;;;;;4955459;28;20535;-76
2023/09/02 03:24:11;;;;;;;6.87;6.47;;;18.30;41.20;;;;;;4956091;29;20194;-79
2023/09/02 03:26:36;;;;;;;6.50;6.20;;;18.30;41.20;;;;;;4939223;29;20214;-79
2023/09/02 03:29:02;;;;;;;6.67;6.37;;;18.30;41.40;;;;;;4956022;29;20178;-77
2023/09/02 03:31:28;;;;;;;5.70;5.40;;;18.30;41.40;;;;;;4955452;29;20203;-76
2023/09/02 03:33:53;;;;;;;7.43;6.83;;;18.30;41.50;;;;;;4954536;29;20254;-78
2023/09/02 03:36:20;;;;;;;6.67;6.30;;;18.30;41.50;;;;;;4956715;29;20239;-78
2023/09/02 03:38:45;;;;;;;6.43;6.13;;;18.30;41.40;;;;;;4956323;29;20209;-77
2023/09/02 03:41:12;;;;;;;7.10;6.60;;;18.30;41.40;;;;;;4938551;29;20462;-78
2023/09/02 03:43:38;;;;;;;6.67;6.30;;;18.30;41.50;;;;;;4956490;29;20540;-78
2023/09/02 03:46:04;;;;;;;6.73;6.33;;;18.30;41.50;;;;;;4957390;29;20569;-78
2023/09/02 03:48:29;;;;;;;6.17;5.77;;;18.30;41.40;;;;;;4956043;29;20714;-78
2023/09/02 03:51:12;;;;;;;6.50;6.10;;;18.30;41.40;;;;;;4955915;29;20439;-78
2023/09/02 03:53:38;;;;;;;6.70;6.40;;;18.20;41.40;;;;;;4956456;29;20167;-78
2023/09/02 03:56:05;;;;;;;5.97;5.57;;;18.20;41.60;;;;;;4955645;29;20716;-76
2023/09/02 03:58:30;;;;;;;7.23;6.60;;;18.30;41.50;;;;;;4954013;28;20755;-76
2023/09/02 04:00:57;;;;;;;7.30;6.90;;;18.30;41.40;;;;;;4955183;28;20519;-75
2023/09/02 04:03:23;;;;;;;6.97;6.57;;;18.30;41.20;;;;;;4938198;29;20189;-76
2023/09/02 04:05:49;;;;;;;7.10;6.70;;;18.30;40.90;;;;;;4955011;29;20485;-76
2023/09/02 04:08:17;;;;;;;7.03;6.60;;;18.30;40.90;;;;;;4939640;29;20420;-78
2023/09/02 04:10:43;;;;;;;6.20;5.90;;;18.30;41.00;;;;;;4960196;29;20171;-77
2023/09/02 04:13:08;;;;;;;6.60;6.20;;;18.30;41.00;;;;;;4957966;29;20437;-77
2023/09/02 04:15:34;;;;;;;6.73;6.33;;;18.30;40.80;;;;;;4961991;28;20190;-77
2023/09/02 04:17:59;;;;;;;6.50;6.20;;;18.20;40.60;;;;;;4944662;29;20234;-78
2023/09/02 04:20:27;;;;;;;6.50;6.20;;;18.20;40.60;;;;;;4943099;29;20194;-76
2023/09/02 04:22:52;;;;;;;6.53;6.20;;;18.20;40.70;;;;;;4961234;28;20550;-76
2023/09/02 04:25:19;;;;;;;6.87;6.57;;;18.20;40.80;;;;;;4967247;28;20446;-76
2023/09/02 04:27:46;;;;;;;6.23;5.93;;;18.20;41.00;;;;;;4944601;29;20167;-76
2023/09/02 04:30:12;;;;;;;7.63;7.10;;;18.20;41.00;;;;;;4939752;29;20968;-78
2023/09/02 04:32:37;;;;;;;7.70;7.10;;;18.10;41.00;;;;;;4958628;29;20439;-78
2023/09/02 04:35:03;;;;;;;7.70;7.17;;;18.10;41.20;;;;;;4959728;29;20407;-79
2023/09/02 04:37:29;;;;;;;7.50;6.90;;;18.10;41.40;;;;;;4957013;29;20522;-77
2023/09/02 04:39:54;;;;;;;7.77;7.00;;;18.00;41.90;;;;;;4941102;29;20453;-79
2023/09/02 04:42:20;;;;;;;6.80;6.50;;;18.10;41.90;;;;;;4954591;29;20581;-76
2023/09/02 04:44:46;;;;;;;6.77;6.23;;;18.00;41.70;;;;;;4956241;29;20172;-77
2023/09/02 04:47:12;;;;;;;6.43;6.13;;;18.00;41.70;;;;;;4963119;28;20565;-78
2023/09/02 04:49:37;;;;;;;6.60;6.30;;;18.00;41.70;;;;;;4948918;28;20414;-76
2023/09/02 04:52:03;;;;;;;5.90;5.70;;;18.00;41.50;;;;;;4967549;28;20439;-75
2023/09/02 04:54:30;;;;;;;7.43;6.93;;;18.00;41.30;;;;;;4967829;28;20176;-77
2023/09/02 04:56:55;;;;;;;8.13;6.87;;;18.00;41.30;;;;;;4968170;28;20466;-78
2023/09/02 04:59:21;;;;;;;7.47;6.90;;;18.00;41.30;;;;;;4940180;29;20450;-76
2023/09/02 05:01:46;;;;;;;6.33;5.93;;;18.00;41.40;;;;;;4958100;29;20205;-77
2023/09/02 05:04:12;;;;;;;6.73;6.43;;;17.90;41.40;;;;;;4956824;29;20202;-78
2023/09/02 05:06:38;;;;;;;7.47;6.97;;;18.00;41.80;;;;;;4952668;29;20211;-76
2023/09/02 05:09:03;;;;;;;6.80;6.20;;;17.90;41.60;;;;;;4936019;29;20175;-77
2023/09/02 05:11:29;;;;;;;7.37;6.87;;;18.00;41.40;;;;;;4937944;29;20195;-75
2023/09/02 05:13:54;;;;;;;7.33;7.03;;;18.00;41.60;;;;;;4937805;29;20230;-76
2023/09/02 05:16:20;;;;;;;7.30;6.73;;;18.00;41.50;;;;;;4955521;29;20230;-76
2023/09/02 05:18:45;;;;;;;6.20;5.80;;;18.00;41.10;;;;;;4954493;29;20202;-76
2023/09/02 05:21:11;;;;;;;6.50;6.10;;;18.10;40.80;;;;;;4953718;29;20176;-76
2023/09/02 05:23:36;;;;;;;7.50;7.10;;;18.10;40.70;;;;;;4953800;29;20190;-76
2023/09/02 05:26:02;;;;;;;6.67;6.33;;;18.10;40.70;;;;;;4953807;29;20195;-76
2023/09/02 05:28:28;;;;;;;6.90;6.60;;;18.10;41.00;;;;;;4953537;29;20182;-76
2023/09/02 05:30:53;;;;;;;6.90;6.47;;;18.00;40.80;;;;;;4953938;29;20176;-76
2023/09/02 05:33:19;;;;;;;5.97;5.67;;;18.10;40.70;;;;;;4956183;29;20670;-77
2023/09/02 05:35:44;;;;;;;8.27;7.60;;;18.10;40.40;;;;;;4961131;28;20229;-74
2023/09/02 05:38:10;;;;;;;7.90;7.30;;;18.10;40.40;;;;;;4973762;28;20189;-77
2023/09/02 05:40:40;;;;;;;6.37;5.97;;;18.10;40.70;;;;;;4950697;29;20214;-77
2023/09/02 05:43:06;;;;;;;6.30;6.00;;;18.00;40.60;;;;;;4974019;28;20297;-77
2023/09/02 05:45:31;;;;;;;7.13;6.63;;;18.10;40.40;;;;;;4977150;28;20898;-77
2023/09/02 05:47:57;;;;;;;7.00;6.60;;;18.10;40.40;;;;;;4977393;28;20574;-77
2023/09/02 05:50:23;;;;;;;7.30;6.80;;;18.10;40.50;;;;;;4974104;28;20183;-77
2023/09/02 05:52:48;;;;;;;6.30;5.90;;;18.00;41.60;;;;;;4958384;29;20230;-77
2023/09/02 05:55:14;;;;;;;6.10;5.60;;;18.00;41.70;;;;;;4958030;29;20183;-78
2023/09/02 05:57:39;;;;;;;6.27;5.93;;;18.10;41.80;;;;;;4959435;29;20688;-76
2023/09/02 06:00:06;;;;;;;6.10;5.70;;;18.10;41.70;;;;;;4967797;29;20207;-74
2023/09/02 06:02:34;;;;;;;6.00;5.60;;;18.10;41.70;;;;;;4967407;28;20218;-76
2023/09/02 06:05:00;;;;;;;6.23;5.60;;;18.20;41.70;;;;;;4965712;29;20423;-76
2023/09/02 06:07:25;;;;;;;6.70;6.30;;;18.20;41.30;;;;;;4966282;29;20411;-76
2023/09/02 06:09:51;;;;;;;7.73;7.13;;;18.20;41.20;;;;;;4944404;29;20894;-77
2023/09/02 06:12:16;;;;;;;6.50;6.00;;;18.10;41.60;;;;;;4940669;29;20195;-77
2023/09/02 06:14:42;;;;;;;7.33;6.90;;;18.10;41.70;;;;;;4957528;29;20171;-77
2023/09/02 06:17:08;;;;;;;7.17;6.67;;;18.00;41.80;;;;;;4957891;29;20179;-77
2023/09/02 06:19:35;;;;;;;6.23;5.83;;;18.00;42.30;;;;;;4940012;29;20706;-77
2023/09/02 06:22:00;;;;;;;6.50;6.20;;;18.00;42.80;;;;;;4939873;29;20453;-77
2023/09/02 06:24:29;;;;;;;6.40;6.00;;;18.00;43.00;;;;;;4956375;29;20842;-77
2023/09/02 06:26:55;;;;;;;6.47;5.87;;;18.10;42.90;;;;;;4956442;29;20207;-77
2023/09/02 06:29:20;;;;;;;7.00;6.43;;;18.10;42.70;;;;;;4956970;29;20469;-76
2023/09/02 06:31:46;;;;;;;8.00;6.93;;;18.20;42.00;;;;;;4938886;29;20283;-76
2023/09/02 06:34:12;;;;;;;6.73;6.33;;;18.10;42.90;;;;;;4956829;29;20254;-76
2023/09/02 06:36:37;;;;;;;6.60;6.20;;;18.10;42.40;;;;;;4955150;29;20180;-76
2023/09/02 06:39:04;;;;;;;6.20;5.70;;;18.20;42.40;;;;;;4939295;29;20481;-75
2023/09/02 06:41:30;;;;;;;6.23;5.93;;;18.20;42.50;;;;;;4955889;29;20257;-76
2023/09/02 06:43:56;;;;;;;6.87;6.40;;;18.30;42.50;;;;;;4954965;29;20407;-76
2023/09/02 06:46:24;;;;;;;6.80;6.20;;;18.40;42.40;;;;;;4955623;29;20598;-77
2023/09/02 06:48:50;;;;;;;6.90;6.30;;;18.40;42.40;;;;;;4938045;29;20258;-76
2023/09/02 06:51:16;;;;;;;6.60;6.20;;;18.50;42.20;;;;;;4938889;29;20533;-77
2023/09/02 06:53:43;;;;;;;6.10;5.70;;;18.50;41.90;;;;;;4954138;28;20164;-77
2023/09/02 06:56:11;;;;;;;6.93;6.43;;;18.60;42.20;;;;;;4956606;29;20517;-78
2023/09/02 06:58:39;;;;;;;5.73;5.43;;;18.60;42.30;;;;;;4939329;29;20446;-77
2023/09/02 07:01:05;;;;;;;5.30;5.00;;;18.60;42.20;;;;;;4972473;28;20433;-77
2023/09/02 07:03:31;;;;;;;5.57;5.27;;;18.60;42.50;;;;;;4975217;28;20421;-76
2023/09/02 07:06:08;;;;;;;6.43;5.73;;;18.60;42.60;;;;;;4975581;28;20206;-76
2023/09/02 07:08:34;;;;;;;5.93;5.53;;;18.80;42.90;;;;;;4959906;28;20467;-78
2023/09/02 07:10:59;;;;;;;6.03;5.70;;;18.80;42.50;;;;;;4958925;28;20418;-77
2023/09/02 07:13:25;;;;;;;6.77;6.33;;;18.80;42.70;;;;;;4976286;28;20225;-78
2023/09/02 07:16:01;;;;;;;6.33;6.03;;;18.90;42.80;;;;;;4960116;28;20271;-76
2023/09/02 07:18:27;;;;;;;6.20;5.90;;;18.90;42.90;;;;;;4959080;28;20236;-76
2023/09/02 07:21:00;;;;;;;7.03;6.20;;;19.00;42.40;;;;;;4973557;28;20500;-77
2023/09/02 07:23:26;;;;;;;6.30;6.00;;;19.10;41.50;;;;;;4975255;28;20245;-78
2023/09/02 07:25:52;;;;;;;6.60;6.20;;;19.20;40.80;;;;;;4976463;28;20473;-77
2023/09/02 07:28:18;;;;;;;6.97;5.73;;;19.30;39.70;;;;;;4975131;28;20414;-77
2023/09/02 07:30:43;;;;;;;7.10;6.50;;;19.40;39.80;;;;;;4974584;28;20416;-76
2023/09/02 07:33:09;;;;;;;5.90;5.50;;;19.50;39.00;;;;;;4975758;28;20202;-77
2023/09/02 07:35:36;;;;;;;7.47;6.83;;;19.60;38.80;;;;;;4977305;28;20178;-77
2023/09/02 07:38:05;;;;;;;6.00;5.70;;;19.70;38.20;;;;;;4976847;28;20174;-77
2023/09/02 07:40:31;;;;;;;6.73;6.43;;;19.70;38.20;;;;;;4957705;28;20527;-77
2023/09/02 07:43:00;;;;;;;6.03;5.80;;;19.80;38.10;;;;;;4974759;28;20517;-77
2023/09/02 07:45:25;;;;;;;7.90;7.30;;;19.80;38.70;;;;;;4973338;28;20265;-77
2023/09/02 07:47:51;;;;;;;7.50;7.00;;;19.90;38.10;;;;;;4973028;28;20406;-76
2023/09/02 07:50:16;;;;;;;7.53;7.13;;;19.90;38.00;;;;;;4973734;28;20175;-76
2023/09/02 07:52:42;;;;;;;6.97;6.57;;;20.00;38.30;;;;;;4973636;28;20200;-77
2023/09/02 07:55:07;;;;;;;6.37;6.07;;;20.00;38.40;;;;;;4975401;28;20175;-78
2023/09/02 07:57:33;;;;;;;6.50;6.20;;;20.00;38.40;;;;;;4977294;28;20254;-77
2023/09/02 08:00:00;;;;;;;8.00;7.60;;;20.10;39.60;;;;;;4977717;28;20258;-78
2023/09/02 08:02:25;;;;;;;7.23;6.93;;;20.10;37.80;;;;;;4975206;28;20202;-78
2023/09/02 08:04:51;;;;;;;7.00;6.70;;;20.10;38.20;;;;;;4975029;28;20866;-77
2023/09/02 08:07:16;;;;;;;8.00;7.50;;;20.10;38.40;;;;;;4975106;28;20290;-78
2023/09/02 08:09:42;;;;;;;7.70;7.27;;;20.10;37.50;;;;;;4974204;28;20653;-77
2023/09/02 08:12:08;;;;;;;7.90;7.50;;;20.20;37.60;;;;;;4967603;28;20207;-78
2023/09/02 08:14:34;;;;;;;7.80;7.40;;;20.30;37.30;;;;;;4965630;28;20641;-77
2023/09/02 08:16:59;;;;;;;6.83;6.43;;;20.40;37.00;;;;;;4955549;28;20490;-77
2023/09/02 08:19:25;;;;;;;6.37;5.83;;;20.40;37.10;;;;;;4973161;28;20716;-77
2023/09/02 08:21:50;;;;;;;6.87;6.47;;;20.50;36.50;;;;;;4949233;28;20205;-77
2023/09/02 08:24:16;;;;;;;7.50;6.87;;;20.50;36.20;;;;;;4978654;28;20300;-78
2023/09/02 08:26:42;;;;;;;7.50;7.10;;;20.60;36.80;;;;;;4974835;28;20245;-77
2023/09/02 08:29:08;;;;;;;7.07;6.50;;;20.60;36.70;;;;;;4977335;28;20234;-81
2023/09/02 08:31:33;;;;;;;6.90;6.40;;;20.70;36.60;;;;;;4978482;28;20840;-80
2023/09/02 08:33:59;;;;;;;6.73;6.33;;;20.70;36.80;;;;;;4979253;28;20424;-79
2023/09/02 08:36:25;;;;;;;7.33;6.63;;;20.80;35.90;;;;;;4976443;28;20221;-78
2023/09/02 08:38:53;;;;;;;7.70;7.30;;;20.90;35.00;;;;;;4976850;28;20179;-78
2023/09/02 08:41:29;;;;;;;7.20;6.80;;;20.90;34.50;;;;;;4960630;28;20245;-78
2023/09/02 08:43:55;;;;;;;8.20;7.70;;;20.90;34.80;;;;;;4977727;28;20438;-79
2023/09/02 08:46:26;;;;;;;7.37;7.07;;;20.90;35.90;;;;;;4977191;28;20466;-79
2023/09/02 08:48:53;;;;;;;8.30;7.80;;;21.00;35.30;;;;;;4978622;28;20420;-79
2023/09/02 08:51:18;;;;;;;6.80;6.40;;;21.00;35.10;;;;;;4977397;28;20449;-79
2023/09/02 08:53:45;;;;;;;8.23;7.77;;;21.10;35.40;;;;;;4977486;28;20430;-78
2023/09/02 08:56:11;;;;;;;7.33;6.83;;;21.10;35.50;;;;;;4976941;28;20186;-78
2023/09/02 08:58:40;;;;;;;8.33;7.80;;;21.20;35.50;;;;;;4977669;28;20457;-78
2023/09/02 09:01:06;;;;;;;8.77;8.17;;;21.20;35.40;;;;;;4976764;28;20436;-77
2023/09/02 09:03:32;;;;;;;8.07;7.47;;;21.20;35.20;;;;;;4976177;28;20437;-78
2023/09/02 09:05:59;;;;;;;8.20;7.60;;;21.20;34.80;;;;;;4972316;28;20516;-76
2023/09/02 09:08:28;;;;;;;7.80;7.40;;;21.30;34.40;;;;;;4976274;28;20449;-79
2023/09/02 09:10:56;;;;;;;8.50;8.10;;;21.40;34.20;;;;;;4977893;28;20845;-79
2023/09/02 09:13:22;;;;;;;7.63;7.23;;;21.50;33.80;;;;;;4975577;28;20461;-79
2023/09/02 09:15:48;;;;;;;8.37;7.97;;;21.70;33.10;;;;;;4971851;28;20493;-77
2023/09/02 09:18:16;;;;;;;7.60;7.30;;;22.00;31.20;;;;;;4977849;28;20425;-77
2023/09/02 09:20:41;;;;;;;8.30;7.90;;;22.30;30.90;;;;;;4980684;28;20437;-79
2023/09/02 09:23:08;;;;;;;8.33;7.73;;;22.50;30.80;;;;;;4979365;28;20472;-76
2023/09/02 09:25:34;;;;;;;7.00;6.60;;;22.70;30.00;;;;;;4956364;28;20233;-76
2023/09/02 09:28:09;;;;;;;7.63;7.30;;;22.90;29.60;;;;;;4975838;28;20426;-77
2023/09/02 09:30:35;;;;;;;8.03;7.57;;;23.10;29.60;;;;;;4973710;28;20434;-78
2023/09/02 09:33:04;;;;;;;7.27;6.93;;;23.40;28.20;;;;;;4952119;28;20449;-78
2023/09/02 09:35:30;;;;;;;7.10;6.80;;;23.60;27.90;;;;;;4974371;28;20319;-77
2023/09/02 09:37:57;;;;;;;7.10;6.80;;;23.70;25.50;;;;;;4940691;29;20466;-76
2023/09/02 09:40:32;;;;;;;7.50;6.90;;;23.90;23.90;;;;;;4958167;28;20236;-77
2023/09/02 09:43:12;;;;;;;8.07;7.63;;;24.10;24.50;;;;;;4975858;28;20444;-77
2023/09/02 09:45:48;;;;;;;7.57;7.17;;;24.30;24.80;;;;;;4954793;29;20846;-76
2023/09/02 09:48:14;;;;;;;8.03;7.63;;;24.40;23.80;;;;;;4958096;29;20434;-77
2023/09/02 09:50:39;;;;;;;8.17;7.67;;;24.60;24.40;;;;;;4960319;28;20433;-79
2023/09/02 09:53:05;;;;;;;7.67;7.17;;;24.70;24.40;;;;;;4972811;28;20195;-78
2023/09/02 09:55:31;;;;;;;7.90;7.60;;;24.80;23.90;;;;;;4983561;28;20247;-79
2023/09/02 09:57:58;;;;;;;7.30;6.90;;;24.80;22.20;;;;;;4960199;28;20205;-78
2023/09/02 10:00:25;;;;;;;7.10;6.70;;;24.90;22.60;;;;;;4949956;28;20929;-77
2023/09/02 10:02:52;;;;;;;7.57;7.20;;;24.90;22.10;;;;;;4957190;29;20523;-78
2023/09/02 10:05:27;;;;;;;7.60;7.20;;;25.00;22.10;;;;;;4956966;29;20461;-77
2023/09/02 10:08:04;;;;;;;8.30;7.90;;;25.10;21.70;;;;;;4957687;29;20922;-77
2023/09/02 10:10:37;;;;;;;7.30;7.00;;;25.20;23.10;;;;;;4971066;28;20468;-77
2023/09/02 10:13:04;;;;;;;6.73;6.33;;;25.20;19.00;;;;;;4957211;29;20817;-78
2023/09/02 10:15:30;;;;;;;6.97;6.67;;;25.30;17.90;;;;;;4958186;28;20863;-77
2023/09/02 10:18:01;;;;;;;6.87;6.57;;;25.30;17.50;;;;;;4942065;29;20447;-78
2023/09/02 10:20:29;;;;;;;7.90;7.50;;;25.40;18.00;;;;;;4957087;29;20937;-77
2023/09/02 10:23:03;;;;;;;7.40;7.10;;;25.50;18.30;;;;;;4955565;28;20443;-76
2023/09/02 10:25:34;;;;;;;7.20;6.80;;;25.50;19.10;;;;;;4938738;29;20455;-76
2023/09/02 10:28:05;;;;;;;7.27;6.87;;;25.50;17.50;;;;;;4954736;28;20415;-75
2023/09/02 10:30:47;;;;;;;7.17;6.87;;;25.60;16.80;;;;;;4955189;29;20438;-76
2023/09/02 10:33:22;;;;;;;6.83;6.50;;;25.60;18.10;;;;;;4956365;29;20438;-77
2023/09/02 10:35:57;;;;;;;6.07;5.87;;;25.60;16.80;;;;;;4961618;28;20807;-76
2023/09/02 10:38:24;;;;;;;7.63;7.23;;;25.60;16.80;;;;;;4947510;29;20442;-77
2023/09/02 10:41:03;;;;;;;6.90;6.70;;;25.60;16.80;;;;;;4972454;28;20484;-76
2023/09/02 10:43:29;;;;;;;6.77;6.37;;;25.60;16.80;;;;;;4948292;29;20511;-76
2023/09/02 10:45:55;;;;;;;7.00;6.60;;;25.60;15.10;;;;;;4963287;28;20493;-77
2023/09/02 10:48:20;;;;;;;6.60;6.30;;;25.80;14.90;;;;;;4966489;29;20411;-75
2023/09/02 10:50:47;;;;;;;6.80;6.50;;;25.90;15.80;;;;;;4963202;28;20426;-78
2023/09/02 10:53:12;;;;;;;6.50;6.20;;;25.90;15.80;;;;;;4942369;29;20206;-79
2023/09/02 10:56:07;;;;;;;6.70;6.40;;;25.90;16.30;;;;;;4962690;29;20427;-78
2023/09/02 10:59:03;;;;;;;6.70;6.30;;;25.80;15.50;;;;;;4946364;29;20294;-77
2023/09/02 11:01:42;;;;;;;6.70;6.40;;;25.70;16.00;;;;;;4943694;28;20449;-76
2023/09/02 11:04:08;;;;;;;7.00;6.70;;;25.60;16.80;;;;;;4974984;28;20433;-76
2023/09/02 11:06:33;;;;;;;7.27;6.87;;;25.70;16.40;;;;;;4951188;29;20467;-76
2023/09/02 11:08:59;;;;;;;7.80;7.40;;;25.90;16.50;;;;;;4956412;29;20190;-77
2023/09/02 11:12:03;;;;;;;7.20;6.70;;;25.80;16.90;;;;;;4939922;29;20560;-78
2023/09/02 11:14:28;;;;;;;7.23;6.60;;;25.70;17.90;;;;;;4959199;29;20190;-77
2023/09/02 11:17:26;;;;;;;5.83;5.63;;;25.60;16.80;;;;;;4967584;28;20426;-78
2023/09/02 11:20:00;;;;;;;6.70;6.40;;;25.60;16.20;;;;;;4978173;28;20183;-78
2023/09/02 11:22:55;;;;;;;7.40;6.80;;;25.60;15.80;;;;;;4978029;28;20793;-78
2023/09/02 11:25:41;;;;;;;7.07;6.77;;;25.80;16.10;;;;;;4960447;28;20430;-76
2023/09/02 11:28:08;;;;;;;6.70;6.40;;;25.70;16.80;;;;;;4943965;29;20788;-78
2023/09/02 11:30:36;;;;;;;6.00;5.80;;;25.50;16.70;;;;;;4958297;29;20425;-78
2023/09/02 11:33:02;;;;;;;6.10;5.90;;;25.40;17.00;;;;;;4974858;28;20914;-78
2023/09/02 11:35:29;;;;;;;6.70;6.30;;;25.40;17.40;;;;;;4977913;28;20450;-77
2023/09/02 11:37:56;;;;;;;7.00;6.70;;;25.40;17.40;;;;;;4978184;28;20876;-77
2023/09/02 11:40:26;;;;;;;7.60;7.20;;;25.50;17.80;;;;;;4960439;28;20501;-77
2023/09/02 11:43:01;;;;;;;7.17;6.87;;;25.60;16.80;;;;;;4978464;28;20956;-78
2023/09/02 11:45:32;;;;;;;7.07;6.77;;;25.70;17.40;;;;;;4960785;28;20536;-79
2023/09/02 11:47:58;;;;;;;7.13;6.83;;;25.70;16.80;;;;;;4978081;28;20432;-78
2023/09/02 11:50:24;;;;;;;7.03;6.73;;;25.70;17.60;;;;;;4978392;28;20778;-77
2023/09/02 11:52:55;;;;;;;7.60;7.20;;;25.70;17.20;;;;;;4977868;28;20194;-78
2023/09/02 11:55:21;;;;;;;6.47;6.20;;;25.70;16.80;;;;;;4978164;28;20468;-78
2023/09/02 11:57:47;;;;;;;6.67;6.47;;;25.60;17.00;;;;;;4977596;28;20469;-78
2023/09/02 12:00:21;;;;;;;7.57;7.17;;;25.60;16.80;;;;;;4977849;28;20411;-78
2023/09/02 12:02:47;;;;;;;7.00;6.70;;;25.70;16.60;;;;;;4977414;28;20222;-78
2023/09/02 12:05:14;;;;;;;7.37;6.93;;;25.60;16.80;;;;;;4977693;28;20454;-78
2023/09/02 12:07:43;;;;;;;7.67;7.37;;;25.60;16.90;;;;;;4948522;29;20432;-79
2023/09/02 12:10:11;;;;;;;7.00;6.80;;;25.40;17.80;;;;;;4958830;29;20415;-79
2023/09/02 12:12:47;;;;;;;7.43;7.13;;;25.30;16.80;;;;;;4969859;28;20442;-78
2023/09/02 12:15:15;;;;;;;7.27;6.87;;;25.30;16.60;;;;;;4977182;28;20830;-78
2023/09/02 12:17:41;;;;;;;7.53;7.10;;;25.30;16.70;;;;;;4951842;29;20425;-77
2023/09/02 12:20:12;;;;;;;6.77;6.53;;;25.30;17.10;;;;;;4967580;28;20471;-77
2023/09/02 12:22:39;;;;;;;7.10;6.80;;;25.20;17.20;;;;;;4971661;28;20470;-78
2023/09/02 12:25:21;;;;;;;6.70;6.50;;;25.20;16.80;;;;;;4975544;28;20418;-77
2023/09/02 12:27:47;;;;;;;6.83;6.53;;;25.10;16.50;;;;;;4974073;28;20537;-75
2023/09/02 12:30:23;;;;;;;6.50;6.30;;;25.20;16.60;;;;;;4973615;28;20844;-78
2023/09/02 12:32:49;;;;;;;6.60;6.03;;;25.10;16.50;;;;;;4965844;28;20866;-77
2023/09/02 12:35:15;;;;;;;6.70;6.40;;;25.10;16.90;;;;;;4954696;29;20415;-77
2023/09/02 12:37:40;;;;;;;7.57;7.10;;;25.00;17.60;;;;;;4954361;29;20565;-78
2023/09/02 12:40:14;;;;;;;7.47;7.03;;;25.10;17.30;;;;;;4954012;29;20183;-78
2023/09/02 12:42:40;;;;;;;6.97;6.57;;;25.00;17.60;;;;;;4954268;29;20222;-76
2023/09/02 12:45:08;;;;;;;6.67;6.17;;;25.10;17.30;;;;;;4937509;29;20447;-77
2023/09/02 12:47:34;;;;;;;7.33;6.93;;;25.30;17.10;;;;;;4938812;29;20431;-77
2023/09/02 12:50:03;;;;;;;6.50;6.20;;;25.40;17.10;;;;;;4956095;29;20434;-78
2023/09/02 12:52:30;;;;;;;7.57;7.20;;;25.40;16.70;;;;;;4957044;28;20443;-79
2023/09/02 12:54:58;;;;;;;6.63;6.33;;;25.60;15.90;;;;;;4957126;29;20423;-79
2023/09/02 12:57:26;;;;;;;6.83;6.53;;;25.60;16.70;;;;;;4957273;29;20458;-78
2023/09/02 12:59:52;;;;;;;7.03;6.60;;;25.50;16.70;;;;;;4957005;28;20510;-78
2023/09/02 13:02:18;;;;;;;6.30;6.10;;;25.70;15.90;;;;;;4957381;29;20581;-77
2023/09/02 13:04:44;;;;;;;6.33;6.13;;;25.90;15.40;;;;;;4957436;29;20179;-77
2023/09/02 13:07:10;;;;;;;5.90;5.70;;;25.80;15.60;;;;;;4957267;29;20474;-77
2023/09/02 13:09:35;;;;;;;7.33;6.33;;;25.80;15.50;;;;;;4957121;29;20494;-78
2023/09/02 13:12:02;;;;;;;6.40;6.10;;;25.70;15.60;;;;;;4957308;28;20183;-78
2023/09/02 13:14:29;;;;;;;6.70;6.30;;;25.60;16.30;;;;;;4939870;29;20256;-77
2023/09/02 13:16:54;;;;;;;6.30;6.00;;;25.50;16.70;;;;;;4955846;29;21004;-78
2023/09/02 13:19:23;;;;;;;6.33;6.10;;;25.40;16.70;;;;;;4957782;29;20419;-78
2023/09/02 13:21:49;;;;;;;5.97;5.70;;;25.30;17.50;;;;;;4940751;29;20459;-78
2023/09/02 13:24:16;;;;;;;5.67;5.47;;;25.10;17.60;;;;;;4958545;29;20572;-77
2023/09/02 13:26:48;;;;;;;6.30;6.00;;;25.30;16.60;;;;;;4958896;29;20274;-79
2023/09/02 13:29:16;;;;;;;6.17;5.60;;;25.40;16.70;;;;;;4959670;28;20435;-77
2023/09/02 13:31:44;;;;;;;5.73;5.43;;;25.60;16.80;;;;;;4958524;29;20433;-78
2023/09/02 13:34:29;;;;;;;5.47;5.20;;;25.70;16.80;;;;;;4956510;29;20423;-77
2023/09/02 13:37:19;;;;;;;5.40;5.20;;;25.60;17.90;;;;;;4954351;29;20410;-77
2023/09/02 13:39:52;;;;;;;5.37;5.17;;;25.60;16.80;;;;;;4955128;29;20752;-78
2023/09/02 13:42:19;;;;;;;5.63;5.43;;;25.50;17.10;;;;;;4955587;29;20430;-77
2023/09/02 13:44:45;;;;;;;5.50;5.07;;;25.40;17.20;;;;;;4938401;29;20493;-77
2023/09/02 13:47:13;;;;;;;5.50;5.20;;;25.30;17.50;;;;;;4955201;28;20554;-78
2023/09/02 13:49:40;;;;;;;5.67;5.37;;;25.20;17.90;;;;;;4954907;29;20407;-77
2023/09/02 13:52:08;;;;;;;6.30;5.90;;;25.20;17.10;;;;;;4939700;29;20518;-78
2023/09/02 13:54:34;;;;;;;6.33;5.80;;;25.10;18.10;;;;;;4955766;29;20434;-77
2023/09/02 13:57:00;;;;;;;6.00;5.70;;;25.10;18.20;;;;;;4938130;29;20434;-78
2023/09/02 13:59:25;;;;;;;5.93;5.73;;;25.20;17.40;;;;;;4939718;29;20183;-77
2023/09/02 14:01:54;;;;;;;6.00;5.80;;;25.10;17.10;;;;;;4958189;29;20199;-79
2023/09/02 14:04:20;;;;;;;6.07;5.67;;;25.20;16.80;;;;;;4959540;28;20175;-78
2023/09/02 14:06:46;;;;;;;6.17;5.87;;;25.30;17.20;;;;;;4962097;29;20567;-78
2023/09/02 14:09:22;;;;;;;6.17;5.87;;;25.20;16.90;;;;;;4971057;29;20175;-77
2023/09/02 14:11:49;;;;;;;6.27;5.97;;;25.30;17.00;;;;;;4972398;29;20430;-76
2023/09/02 14:14:20;;;;;;;5.97;5.67;;;25.30;17.00;;;;;;4976828;28;20431;-76
2023/09/02 14:16:46;;;;;;;5.87;5.67;;;25.20;16.90;;;;;;4972724;29;20414;-77
2023/09/02 14:19:12;;;;;;;6.27;6.07;;;25.20;16.90;;;;;;4959009;29;20406;-77
2023/09/02 14:21:37;;;;;;;6.60;6.30;;;25.10;17.40;;;;;;4958477;29;20430;-78
2023/09/02 14:24:03;;;;;;;6.40;6.20;;;25.10;17.30;;;;;;4958996;29;20553;-77
2023/09/02 14:26:29;;;;;;;6.10;5.80;;;25.20;17.70;;;;;;4957790;29;20207;-77
2023/09/02 14:28:56;;;;;;;6.33;6.03;;;25.20;18.10;;;;;;4957727;29;20419;-77
2023/09/02 14:31:21;;;;;;;6.23;5.93;;;25.20;18.40;;;;;;4957201;29;20435;-77
2023/09/02 14:33:47;;;;;;;5.90;5.70;;;25.20;18.60;;;;;;4956311;29;20427;-77
2023/09/02 14:36:12;;;;;;;6.30;6.00;;;25.20;18.40;;;;;;4956051;29;20179;-77
2023/09/02 14:38:38;;;;;;;6.53;6.17;;;25.20;18.30;;;;;;4958005;29;20183;-78
2023/09/02 14:41:03;;;;;;;6.07;5.87;;;25.20;18.50;;;;;;4960401;29;20175;-78
2023/09/02 14:43:29;;;;;;;6.47;6.17;;;25.20;18.50;;;;;;4961013;29;20183;-77
2023/09/02 14:45:55;;;;;;;6.00;5.70;;;25.30;19.30;;;;;;4943338;29;20211;-79
2023/09/02 14:48:23;;;;;;;5.90;5.60;;;25.30;18.90;;;;;;4960337;29;20175;-78